sensor_id;sensor_type;location;lat;lon;timestamp;pressure;altitude;pressure_sealevel;temperature;humidity
62712;BME280;48772;55.586;37.730;2022-10-17T00:01:12;100533.31;;;5.78;100.00
62712;BME280;48772;55.586;37.730;2022-10-17T00:03:39;100515.59;;;5.80;100.00
62712;BME280;48772;55.586;37.730;2022-10-17T00:06:07;100520.88;;;5.80;100.00
62712;BME280;48772;55.586;37.730;2022-10-17T00:08:34;100483.28;;;5.55;100.00
62712;BME280;48772;55.586;37.730;2022-10-17T00:11:04;100513.44;;;5.69;100.00
62712;BME280;48772;55.586;37.730;2022-10-17T00:13:31;100505.81;;;5.63;100.00
62712;BME280;48772;55.586;37.730;2022-10-17T00:15:57;100503.94;;;5.65;100.00
62712;BME280;48772;55.586;37.730;2022-10-17T00:18:23;100521.03;;;5.77;100.00
62712;BME280;48772;55.586;37.730;2022-10-17T00:20:49;100513.53;;;5.68;100.00
62712;BME280;48772;55.586;37.730;2022-10-17T00:23:15;100506.28;;;5.71;100.00
62712;BME280;48772;55.586;37.730;2022-10-17T00:25:41;100490.06;;;5.60;100.00
62712;BME280;48772;55.586;37.730;2022-10-17T00:28:11;100519.31;;;5.76;100.00
62712;BME280;48772;55.586;37.730;2022-10-17T00:30:37;100513.22;;;5.74;100.00
62712;BME280;48772;55.586;37.730;2022-10-17T00:33:04;100508.75;;;5.76;100.00
62712;BME280;48772;55.586;37.730;2022-10-17T00:35:30;100495.78;;;5.70;100.00
62712;BME280;48772;55.586;37.730;2022-10-17T00:37:57;100460.41;;;5.54;100.00
62712;BME280;48772;55.586;37.730;2022-10-17T00:40:23;100496.41;;;5.75;100.00
62712;BME280;48772;55.586;37.730;2022-10-17T00:42:49;100480.28;;;5.62;100.00
62712;BME280;48772;55.586;37.730;2022-10-17T00:45:26;100445.25;;;5.39;100.00
62712;BME280;48772;55.586;37.730;2022-10-17T00:48:03;100460.47;;;5.52;100.00
62712;BME280;48772;55.586;37.730;2022-10-17T00:50:29;100460.69;;;5.48;100.00
62712;BME280;48772;55.586;37.730;2022-10-17T00:52:58;100469.09;;;5.56;100.00
62712;BME280;48772;55.586;37.730;2022-10-17T00:55:27;100452.25;;;5.40;100.00
62712;BME280;48772;55.586;37.730;2022-10-17T00:57:56;100453.97;;;5.41;100.00
62712;BME280;48772;55.586;37.730;2022-10-17T01:00:23;100476.13;;;5.57;100.00
62712;BME280;48772;55.586;37.730;2022-10-17T01:02:49;100473.50;;;5.57;100.00
62712;BME280;48772;55.586;37.730;2022-10-17T01:05:16;100466.59;;;5.53;100.00
62712;BME280;48772;55.586;37.730;2022-10-17T01:07:44;100465.47;;;5.58;100.00
62712;BME280;48772;55.586;37.730;2022-10-17T01:10:11;100466.41;;;5.57;100.00
62712;BME280;48772;55.586;37.730;2022-10-17T01:12:55;100458.53;;;5.56;100.00
62712;BME280;48772;55.586;37.730;2022-10-17T01:31:58;100434.50;;;5.42;100.00
62712;BME280;48772;55.586;37.730;2022-10-17T01:34:30;100418.28;;;5.31;100.00
62712;BME280;48772;55.586;37.730;2022-10-17T01:42:24;100399.22;;;5.24;100.00
62712;BME280;48772;55.586;37.730;2022-10-17T01:45:09;100400.78;;;5.28;100.00
62712;BME280;48772;55.586;37.730;2022-10-17T01:47:38;100384.34;;;5.22;100.00
62712;BME280;48772;55.586;37.730;2022-10-17T01:50:17;100387.88;;;5.22;100.00
62712;BME280;48772;55.586;37.730;2022-10-17T01:52:49;100395.81;;;5.22;100.00
62712;BME280;48772;55.586;37.730;2022-10-17T01:55:25;100393.63;;;5.12;100.00
62712;BME280;48772;55.586;37.730;2022-10-17T01:57:57;100391.00;;;5.12;100.00
62712;BME280;48772;55.586;37.730;2022-10-17T02:00:26;100389.34;;;5.09;100.00
62712;BME280;48772;55.586;37.730;2022-10-17T02:02:57;100402.50;;;5.11;100.00
62712;BME280;48772;55.586;37.730;2022-10-17T02:05:26;100410.56;;;5.08;100.00
62712;BME280;48772;55.586;37.730;2022-10-17T02:07:53;100394.69;;;5.08;100.00
62712;BME280;48772;55.586;37.730;2022-10-17T02:10:47;100381.13;;;4.97;100.00
62712;BME280;48772;55.586;37.730;2022-10-17T02:16:35;100418.75;;;5.02;100.00
62712;BME280;48772;55.586;37.730;2022-10-17T02:22:21;100376.13;;;4.91;100.00
62712;BME280;48772;55.586;37.730;2022-10-17T02:25:08;100407.63;;;4.95;100.00
62712;BME280;48772;55.586;37.730;2022-10-17T02:31:23;100393.69;;;4.92;100.00
62712;BME280;48772;55.586;37.730;2022-10-17T02:34:00;100400.06;;;4.88;100.00
62712;BME280;48772;55.586;37.730;2022-10-17T02:36:35;100363.84;;;4.71;100.00
62712;BME280;48772;55.586;37.730;2022-10-17T02:39:05;100379.88;;;4.85;100.00
62712;BME280;48772;55.586;37.730;2022-10-17T02:41:34;100386.19;;;4.83;100.00
62712;BME280;48772;55.586;37.730;2022-10-17T02:44:02;100370.69;;;4.75;100.00
62712;BME280;48772;55.586;37.730;2022-10-17T02:46:30;100389.56;;;4.86;100.00
62712;BME280;48772;55.586;37.730;2022-10-17T02:49:15;100380.19;;;4.79;100.00
62712;BME280;48772;55.586;37.730;2022-10-17T02:51:56;100382.75;;;4.81;100.00
62712;BME280;48772;55.586;37.730;2022-10-17T03:00:04;100366.91;;;4.81;100.00
62712;BME280;48772;55.586;37.730;2022-10-17T03:02:43;100357.34;;;4.78;100.00
62712;BME280;48772;55.586;37.730;2022-10-17T03:05:11;100353.19;;;4.73;100.00
62712;BME280;48772;55.586;37.730;2022-10-17T03:07:37;100352.84;;;4.80;100.00
62712;BME280;48772;55.586;37.730;2022-10-17T03:10:03;100353.69;;;4.81;100.00
62712;BME280;48772;55.586;37.730;2022-10-17T03:12:30;100357.53;;;4.74;100.00
62712;BME280;48772;55.586;37.730;2022-10-17T03:14:56;100348.03;;;4.70;100.00
62712;BME280;48772;55.586;37.730;2022-10-17T03:17:22;100351.81;;;4.83;100.00
62712;BME280;48772;55.586;37.730;2022-10-17T03:19:48;100321.78;;;4.67;100.00
62712;BME280;48772;55.586;37.730;2022-10-17T03:22:15;100353.03;;;4.76;100.00
62712;BME280;48772;55.586;37.730;2022-10-17T03:24:44;100339.88;;;4.74;100.00
62712;BME280;48772;55.586;37.730;2022-10-17T03:27:10;100318.31;;;4.65;100.00
62712;BME280;48772;55.586;37.730;2022-10-17T03:29:37;100332.97;;;4.72;100.00
62712;BME280;48772;55.586;37.730;2022-10-17T03:32:04;100287.63;;;4.44;100.00
62712;BME280;48772;55.586;37.730;2022-10-17T03:34:30;100297.91;;;4.50;100.00
62712;BME280;48772;55.586;37.730;2022-10-17T03:36:56;100329.56;;;4.70;100.00
62712;BME280;48772;55.586;37.730;2022-10-17T03:39:23;100326.91;;;4.70;100.00
62712;BME280;48772;55.586;37.730;2022-10-17T03:41:49;100331.34;;;4.69;100.00
62712;BME280;48772;55.586;37.730;2022-10-17T03:44:15;100316.34;;;4.70;100.00
62712;BME280;48772;55.586;37.730;2022-10-17T03:46:41;100324.22;;;4.71;100.00
62712;BME280;48772;55.586;37.730;2022-10-17T03:49:10;100229.94;;;4.35;100.00
62712;BME280;48772;55.586;37.730;2022-10-17T03:51:36;100307.34;;;4.74;100.00
62712;BME280;48772;55.586;37.730;2022-10-17T03:54:07;100294.97;;;4.74;100.00
62712;BME280;48772;55.586;37.730;2022-10-17T03:56:33;100289.13;;;4.68;100.00
62712;BME280;48772;55.586;37.730;2022-10-17T03:59:03;100288.13;;;4.70;100.00
62712;BME280;48772;55.586;37.730;2022-10-17T04:01:37;100288.72;;;4.77;100.00
62712;BME280;48772;55.586;37.730;2022-10-17T04:04:03;100295.91;;;4.73;100.00
62712;BME280;48772;55.586;37.730;2022-10-17T04:06:32;100290.84;;;4.69;100.00
62712;BME280;48772;55.586;37.730;2022-10-17T04:09:02;100283.91;;;4.66;100.00
62712;BME280;48772;55.586;37.730;2022-10-17T04:11:43;100227.03;;;4.41;100.00
62712;BME280;48772;55.586;37.730;2022-10-17T04:14:10;100280.38;;;4.67;100.00
62712;BME280;48772;55.586;37.730;2022-10-17T04:16:37;100290.06;;;4.67;100.00
62712;BME280;48772;55.586;37.730;2022-10-17T04:19:12;100294.28;;;4.71;100.00
62712;BME280;48772;55.586;37.730;2022-10-17T04:21:41;100288.38;;;4.66;100.00
62712;BME280;48772;55.586;37.730;2022-10-17T04:24:09;100288.72;;;4.77;100.00
62712;BME280;48772;55.586;37.730;2022-10-17T04:27:04;100262.44;;;4.74;100.00
62712;BME280;48772;55.586;37.730;2022-10-17T04:29:32;100277.22;;;4.78;100.00
62712;BME280;48772;55.586;37.730;2022-10-17T04:32:25;100272.06;;;4.75;100.00
62712;BME280;48772;55.586;37.730;2022-10-17T04:34:59;100242.75;;;4.81;100.00
62712;BME280;48772;55.586;37.730;2022-10-17T04:37:25;100262.41;;;4.92;100.00
62712;BME280;48772;55.586;37.730;2022-10-17T04:39:53;100270.34;;;4.92;100.00
62712;BME280;48772;55.586;37.730;2022-10-17T04:42:19;100271.84;;;4.98;100.00
62712;BME280;48772;55.586;37.730;2022-10-17T04:44:45;100286.13;;;4.94;100.00
62712;BME280;48772;55.586;37.730;2022-10-17T04:47:13;100275.06;;;5.04;100.00
62712;BME280;48772;55.586;37.730;2022-10-17T04:49:41;100239.34;;;4.96;100.00
62712;BME280;48772;55.586;37.730;2022-10-17T04:52:09;100264.25;;;5.09;100.00
62712;BME280;48772;55.586;37.730;2022-10-17T04:54:43;100242.34;;;5.07;100.00
62712;BME280;48772;55.586;37.730;2022-10-17T04:57:11;100271.03;;;5.14;100.00
62712;BME280;48772;55.586;37.730;2022-10-17T04:59:39;100238.91;;;5.05;100.00
62712;BME280;48772;55.586;37.730;2022-10-17T05:02:31;100266.31;;;5.21;100.00
62712;BME280;48772;55.586;37.730;2022-10-17T05:04:58;100256.50;;;5.23;100.00
62712;BME280;48772;55.586;37.730;2022-10-17T05:07:24;100246.88;;;5.22;100.00
62712;BME280;48772;55.586;37.730;2022-10-17T05:09:57;100188.06;;;5.00;100.00
62712;BME280;48772;55.586;37.730;2022-10-17T05:12:24;100234.94;;;5.32;100.00
62712;BME280;48772;55.586;37.730;2022-10-17T05:14:51;100232.56;;;5.26;100.00
62712;BME280;48772;55.586;37.730;2022-10-17T05:17:19;100213.84;;;5.30;100.00
62712;BME280;48772;55.586;37.730;2022-10-17T05:19:45;100202.00;;;5.20;100.00
62712;BME280;48772;55.586;37.730;2022-10-17T05:22:14;100175.09;;;5.12;100.00
62712;BME280;48772;55.586;37.730;2022-10-17T05:24:43;100215.31;;;5.36;100.00
62712;BME280;48772;55.586;37.730;2022-10-17T05:27:10;100216.88;;;5.40;100.00
62712;BME280;48772;55.586;37.730;2022-10-17T05:29:35;100226.28;;;5.45;100.00
62712;BME280;48772;55.586;37.730;2022-10-17T05:32:10;100219.03;;;5.49;100.00
62712;BME280;48772;55.586;37.730;2022-10-17T05:34:37;100201.63;;;5.45;100.00
62712;BME280;48772;55.586;37.730;2022-10-17T05:37:32;100221.84;;;5.63;100.00
62712;BME280;48772;55.586;37.730;2022-10-17T05:40:02;100233.22;;;5.65;100.00
62712;BME280;48772;55.586;37.730;2022-10-17T05:42:29;100218.13;;;5.67;100.00
62712;BME280;48772;55.586;37.730;2022-10-17T05:44:56;100205.22;;;5.61;100.00
62712;BME280;48772;55.586;37.730;2022-10-17T05:47:24;100214.06;;;5.77;100.00
62712;BME280;48772;55.586;37.730;2022-10-17T05:49:50;100179.22;;;5.69;100.00
62712;BME280;48772;55.586;37.730;2022-10-17T05:52:16;100217.19;;;5.85;100.00
62712;BME280;48772;55.586;37.730;2022-10-17T05:54:59;100216.88;;;5.91;100.00
62712;BME280;48772;55.586;37.730;2022-10-17T05:57:26;100202.06;;;6.04;100.00
62712;BME280;48772;55.586;37.730;2022-10-17T05:59:52;100204.22;;;6.13;100.00
62712;BME280;48772;55.586;37.730;2022-10-17T06:02:19;100180.56;;;6.10;100.00
62712;BME280;48772;55.586;37.730;2022-10-17T06:04:46;100157.53;;;6.12;100.00
62712;BME280;48772;55.586;37.730;2022-10-17T06:07:15;100175.66;;;6.35;100.00
62712;BME280;48772;55.586;37.730;2022-10-17T06:09:42;100186.59;;;6.44;100.00
62712;BME280;48772;55.586;37.730;2022-10-17T06:12:09;100178.13;;;6.38;100.00
62712;BME280;48772;55.586;37.730;2022-10-17T06:14:35;100167.66;;;6.52;100.00
62712;BME280;48772;55.586;37.730;2022-10-17T06:17:02;100189.34;;;6.58;100.00
62712;BME280;48772;55.586;37.730;2022-10-17T06:19:28;100176.84;;;6.60;100.00
62712;BME280;48772;55.586;37.730;2022-10-17T06:21:55;100174.97;;;6.62;100.00
62712;BME280;48772;55.586;37.730;2022-10-17T06:24:23;100191.56;;;6.66;100.00
62712;BME280;48772;55.586;37.730;2022-10-17T06:26:51;100177.38;;;6.67;100.00
62712;BME280;48772;55.586;37.730;2022-10-17T06:29:19;100150.97;;;6.50;100.00
62712;BME280;48772;55.586;37.730;2022-10-17T06:31:49;100161.81;;;6.61;100.00
62712;BME280;48772;55.586;37.730;2022-10-17T06:34:15;100145.91;;;6.61;100.00
62712;BME280;48772;55.586;37.730;2022-10-17T06:36:41;100163.88;;;6.56;100.00
62712;BME280;48772;55.586;37.730;2022-10-17T06:39:08;100179.25;;;6.65;100.00
62712;BME280;48772;55.586;37.730;2022-10-17T06:41:42;100123.78;;;6.31;100.00
62712;BME280;48772;55.586;37.730;2022-10-17T06:44:09;100149.25;;;6.49;100.00
62712;BME280;48772;55.586;37.730;2022-10-17T06:46:49;100156.09;;;6.68;100.00
62712;BME280;48772;55.586;37.730;2022-10-17T06:49:16;100144.97;;;6.77;100.00
62712;BME280;48772;55.586;37.730;2022-10-17T06:52:14;100140.06;;;6.85;100.00
62712;BME280;48772;55.586;37.730;2022-10-17T06:55:14;100145.03;;;6.92;100.00
62712;BME280;48772;55.586;37.730;2022-10-17T06:57:49;100134.56;;;7.04;100.00
62712;BME280;48772;55.586;37.730;2022-10-17T07:00:39;100121.91;;;7.09;100.00
62712;BME280;48772;55.586;37.730;2022-10-17T07:03:06;100141.31;;;7.10;100.00
62712;BME280;48772;55.586;37.730;2022-10-17T07:05:32;100125.50;;;7.08;100.00
62712;BME280;48772;55.586;37.730;2022-10-17T07:07:58;100139.47;;;7.26;100.00
62712;BME280;48772;55.586;37.730;2022-10-17T07:10:29;100102.88;;;7.17;100.00
62712;BME280;48772;55.586;37.730;2022-10-17T07:12:56;100106.06;;;7.37;100.00
62712;BME280;48772;55.586;37.730;2022-10-17T07:15:22;100121.59;;;7.43;100.00
62712;BME280;48772;55.586;37.730;2022-10-17T07:17:48;100126.38;;;7.52;100.00
62712;BME280;48772;55.586;37.730;2022-10-17T07:20:18;100084.72;;;7.25;100.00
62712;BME280;48772;55.586;37.730;2022-10-17T07:22:44;100130.34;;;7.59;100.00
62712;BME280;48772;55.586;37.730;2022-10-17T07:25:13;100087.88;;;7.45;100.00
62712;BME280;48772;55.586;37.730;2022-10-17T07:27:50;100120.31;;;7.64;100.00
62712;BME280;48772;55.586;37.730;2022-10-17T07:30:17;100129.03;;;7.66;100.00
62712;BME280;48772;55.586;37.730;2022-10-17T07:32:55;100080.28;;;7.39;100.00
62712;BME280;48772;55.586;37.730;2022-10-17T07:35:22;100111.88;;;7.58;100.00
62712;BME280;48772;55.586;37.730;2022-10-17T07:37:48;100079.66;;;7.50;100.00
62712;BME280;48772;55.586;37.730;2022-10-17T07:40:27;100060.00;;;7.38;100.00
62712;BME280;48772;55.586;37.730;2022-10-17T07:42:53;100108.34;;;7.57;100.00
62712;BME280;48772;55.586;37.730;2022-10-17T07:45:21;100064.66;;;7.35;100.00
62712;BME280;48772;55.586;37.730;2022-10-17T07:47:48;100092.03;;;7.49;100.00
62712;BME280;48772;55.586;37.730;2022-10-17T07:50:15;100095.97;;;7.72;100.00
62712;BME280;48772;55.586;37.730;2022-10-17T07:52:41;100110.06;;;7.72;100.00
62712;BME280;48772;55.586;37.730;2022-10-17T07:55:08;100106.59;;;7.72;100.00
62712;BME280;48772;55.586;37.730;2022-10-17T07:57:34;100077.94;;;7.77;100.00
62712;BME280;48772;55.586;37.730;2022-10-17T08:00:00;100080.31;;;7.81;100.00
62712;BME280;48772;55.586;37.730;2022-10-17T08:02:28;100099.53;;;7.71;100.00
62712;BME280;48772;55.586;37.730;2022-10-17T08:04:54;100087.69;;;7.76;100.00
62712;BME280;48772;55.586;37.730;2022-10-17T08:07:21;100113.69;;;7.71;100.00
62712;BME280;48772;55.586;37.730;2022-10-17T08:09:47;100083.63;;;7.57;100.00
62712;BME280;48772;55.586;37.730;2022-10-17T08:12:13;100111.59;;;7.76;100.00
62712;BME280;48772;55.586;37.730;2022-10-17T08:14:40;100100.78;;;7.65;100.00
62712;BME280;48772;55.586;37.730;2022-10-17T08:17:07;100109.63;;;7.80;100.00
62712;BME280;48772;55.586;37.730;2022-10-17T08:19:32;100096.63;;;7.75;100.00
62712;BME280;48772;55.586;37.730;2022-10-17T08:21:58;100105.44;;;7.76;100.00
62712;BME280;48772;55.586;37.730;2022-10-17T08:24:25;100095.84;;;7.87;100.00
62712;BME280;48772;55.586;37.730;2022-10-17T08:26:51;100070.16;;;7.88;100.00
62712;BME280;48772;55.586;37.730;2022-10-17T08:29:18;100039.91;;;7.76;100.00
62712;BME280;48772;55.586;37.730;2022-10-17T08:31:44;100069.88;;;7.92;100.00
62712;BME280;48772;55.586;37.730;2022-10-17T08:34:10;100066.34;;;7.92;100.00
62712;BME280;48772;55.586;37.730;2022-10-17T08:36:36;100045.97;;;7.92;100.00
62712;BME280;48772;55.586;37.730;2022-10-17T08:39:03;100057.94;;;7.99;100.00
62712;BME280;48772;55.586;37.730;2022-10-17T08:41:45;100049.38;;;7.94;100.00
62712;BME280;48772;55.586;37.730;2022-10-17T08:47:01;100067.50;;;8.02;100.00
62712;BME280;48772;55.586;37.730;2022-10-17T08:49:53;100058.19;;;8.09;100.00
62712;BME280;48772;55.586;37.730;2022-10-17T08:54:52;100117.28;;;7.98;100.00
62712;BME280;48772;55.586;37.730;2022-10-17T08:57:18;100084.75;;;7.95;100.00
62712;BME280;48772;55.586;37.730;2022-10-17T08:59:49;100130.28;;;7.89;100.00
62712;BME280;48772;55.586;37.730;2022-10-17T09:13:15;100117.19;;;7.58;100.00
62712;BME280;48772;55.586;37.730;2022-10-17T09:15:46;100108.25;;;7.45;100.00
62712;BME280;48772;55.586;37.730;2022-10-17T09:21:52;100095.84;;;7.16;100.00
62712;BME280;48772;55.586;37.730;2022-10-17T09:24:27;100114.28;;;7.03;100.00
62712;BME280;48772;55.586;37.730;2022-10-17T09:26:58;100083.56;;;6.85;100.00
62712;BME280;48772;55.586;37.730;2022-10-17T09:29:26;100098.16;;;6.92;100.00
62712;BME280;48772;55.586;37.730;2022-10-17T09:32:12;100076.63;;;6.82;100.00
62712;BME280;48772;55.586;37.730;2022-10-17T09:34:40;100075.56;;;6.71;100.00
62712;BME280;48772;55.586;37.730;2022-10-17T09:37:12;100064.44;;;6.64;100.00
62712;BME280;48772;55.586;37.730;2022-10-17T09:39:39;100089.22;;;6.79;100.00
62712;BME280;48772;55.586;37.730;2022-10-17T09:42:16;100111.38;;;6.78;100.00
62712;BME280;48772;55.586;37.730;2022-10-17T09:44:48;100086.41;;;6.82;100.00
62712;BME280;48772;55.586;37.730;2022-10-17T09:47:36;100063.38;;;6.53;100.00
62712;BME280;48772;55.586;37.730;2022-10-17T09:50:35;100055.81;;;6.61;100.00
62712;BME280;48772;55.586;37.730;2022-10-17T09:53:14;100078.72;;;6.62;100.00
62712;BME280;48772;55.586;37.730;2022-10-17T09:55:46;100085.84;;;6.61;100.00
62712;BME280;48772;55.586;37.730;2022-10-17T09:58:14;100069.47;;;6.69;100.00
62712;BME280;48772;55.586;37.730;2022-10-17T10:00:43;100049.41;;;6.65;100.00
62712;BME280;48772;55.586;37.730;2022-10-17T10:03:20;100012.53;;;6.46;100.00
62712;BME280;48772;55.586;37.730;2022-10-17T10:08:53;100052.84;;;6.67;100.00
62712;BME280;48772;55.586;37.730;2022-10-17T10:11:25;100062.66;;;6.65;100.00
62712;BME280;48772;55.586;37.730;2022-10-17T10:13:54;100049.59;;;6.62;100.00
62712;BME280;48772;55.586;37.730;2022-10-17T10:16:41;100059.50;;;6.74;100.00
62712;BME280;48772;55.586;37.730;2022-10-17T10:19:30;100035.25;;;6.80;100.00
62712;BME280;48772;55.586;37.730;2022-10-17T10:22:05;100023.63;;;6.82;100.00
62712;BME280;48772;55.586;37.730;2022-10-17T10:24:31;100043.81;;;6.85;100.00
62712;BME280;48772;55.586;37.730;2022-10-17T10:27:00;100036.09;;;6.96;100.00
62712;BME280;48772;55.586;37.730;2022-10-17T10:29:30;100037.09;;;6.93;100.00
62712;BME280;48772;55.586;37.730;2022-10-17T10:32:36;100037.41;;;7.03;100.00
62712;BME280;48772;55.586;37.730;2022-10-17T10:35:05;100059.81;;;6.97;100.00
62712;BME280;48772;55.586;37.730;2022-10-17T10:37:44;100022.22;;;6.91;100.00
62712;BME280;48772;55.586;37.730;2022-10-17T10:40:24;100039.94;;;6.91;100.00
62712;BME280;48772;55.586;37.730;2022-10-17T10:42:54;100019.41;;;6.94;100.00
62712;BME280;48772;55.586;37.730;2022-10-17T10:45:23;100018.75;;;7.05;100.00
62712;BME280;48772;55.586;37.730;2022-10-17T10:53:23;100039.31;;;7.01;100.00
62712;BME280;48772;55.586;37.730;2022-10-17T10:55:54;100025.19;;;7.01;100.00
62712;BME280;48772;55.586;37.730;2022-10-17T11:01:18;100028.97;;;6.97;100.00
62712;BME280;48772;55.586;37.730;2022-10-17T11:03:54;100010.88;;;7.03;100.00
62712;BME280;48772;55.586;37.730;2022-10-17T11:06:26;100008.13;;;7.05;100.00
62712;BME280;48772;55.586;37.730;2022-10-17T11:11:47;100003.88;;;7.02;100.00
62712;BME280;48772;55.586;37.730;2022-10-17T11:17:03;100025.13;;;7.16;100.00
62712;BME280;48772;55.586;37.730;2022-10-17T11:22:27;100030.78;;;7.10;100.00
62712;BME280;48772;55.586;37.730;2022-10-17T11:27:54;99988.63;;;6.92;100.00
62712;BME280;48772;55.586;37.730;2022-10-17T11:30:22;99987.44;;;7.11;100.00
62712;BME280;48772;55.586;37.730;2022-10-17T11:32:57;99967.91;;;7.12;100.00
62712;BME280;48772;55.586;37.730;2022-10-17T11:35:42;99963.56;;;7.11;100.00
62712;BME280;48772;55.586;37.730;2022-10-17T11:41:12;99964.13;;;7.16;100.00
62712;BME280;48772;55.586;37.730;2022-10-17T11:43:52;99981.72;;;7.17;100.00
62712;BME280;48772;55.586;37.730;2022-10-17T11:46:24;99974.91;;;7.13;100.00
62712;BME280;48772;55.586;37.730;2022-10-17T11:51:15;99948.78;;;7.07;100.00
62712;BME280;48772;55.586;37.730;2022-10-17T11:56:30;99973.97;;;7.14;100.00
62712;BME280;48772;55.586;37.730;2022-10-17T12:01:51;99981.72;;;7.17;100.00
62712;BME280;48772;55.586;37.730;2022-10-17T12:04:54;99995.19;;;7.14;100.00
62712;BME280;48772;55.586;37.730;2022-10-17T12:10:18;99930.03;;;6.96;100.00
62712;BME280;48772;55.586;37.730;2022-10-17T12:12:46;99954.47;;;7.01;100.00
62712;BME280;48772;55.586;37.730;2022-10-17T12:18:15;99942.34;;;7.11;100.00
62712;BME280;48772;55.586;37.730;2022-10-17T12:20:42;99960.69;;;7.14;100.00
62712;BME280;48772;55.586;37.730;2022-10-17T12:25:58;99951.22;;;7.10;100.00
62712;BME280;48772;55.586;37.730;2022-10-17T12:28:42;99930.31;;;7.06;100.00
62712;BME280;48772;55.586;37.730;2022-10-17T12:33:49;99917.34;;;7.15;100.00
62712;BME280;48772;55.586;37.730;2022-10-17T12:41:56;99930.28;;;7.20;100.00
62712;BME280;48772;55.586;37.730;2022-10-17T12:47:25;99916.75;;;7.10;100.00
62712;BME280;48772;55.586;37.730;2022-10-17T12:49:45;99935.41;;;7.09;100.00
62712;BME280;48772;55.586;37.730;2022-10-17T12:52:20;99946.69;;;7.12;100.00
62712;BME280;48772;55.586;37.730;2022-10-17T12:57:26;99929.38;;;7.21;100.00
62712;BME280;48772;55.586;37.730;2022-10-17T12:59:54;99948.03;;;7.19;100.00
62712;BME280;48772;55.586;37.730;2022-10-17T13:02:24;99916.41;;;7.16;100.00
62712;BME280;48772;55.586;37.730;2022-10-17T13:05:02;99888.38;;;6.98;100.00
62712;BME280;48772;55.586;37.730;2022-10-17T13:07:32;99948.41;;;7.27;100.00
62712;BME280;48772;55.586;37.730;2022-10-17T13:09:59;99971.91;;;7.33;100.00
62712;BME280;48772;55.586;37.730;2022-10-17T13:12:32;99948.22;;;7.16;100.00
62712;BME280;48772;55.586;37.730;2022-10-17T13:15:03;99929.25;;;7.36;100.00
62712;BME280;48772;55.586;37.730;2022-10-17T13:17:31;99953.63;;;7.29;100.00
62712;BME280;48772;55.586;37.730;2022-10-17T13:19:57;99952.00;;;7.40;100.00
62712;BME280;48772;55.586;37.730;2022-10-17T13:22:29;99938.56;;;7.29;100.00
62712;BME280;48772;55.586;37.730;2022-10-17T13:25:27;99962.63;;;7.40;100.00
62712;BME280;48772;55.586;37.730;2022-10-17T13:28:11;99954.75;;;7.25;100.00
62712;BME280;48772;55.586;37.730;2022-10-17T13:30:38;99962.63;;;7.26;100.00
62712;BME280;48772;55.586;37.730;2022-10-17T13:33:20;100014.44;;;7.46;100.00
62712;BME280;48772;55.586;37.730;2022-10-17T13:35:52;100024.75;;;7.50;100.00
62712;BME280;48772;55.586;37.730;2022-10-17T13:38:24;100026.94;;;7.44;100.00
62712;BME280;48772;55.586;37.730;2022-10-17T13:40:50;99970.75;;;7.23;100.00
62712;BME280;48772;55.586;37.730;2022-10-17T13:43:19;99988.75;;;7.46;100.00
62712;BME280;48772;55.586;37.730;2022-10-17T13:46:01;99982.13;;;7.53;100.00
62712;BME280;48772;55.586;37.730;2022-10-17T13:48:33;100013.50;;;7.61;100.00
62712;BME280;48772;55.586;37.730;2022-10-17T13:51:01;99974.75;;;7.44;100.00
62712;BME280;48772;55.586;37.730;2022-10-17T13:53:31;99988.94;;;7.57;100.00
62712;BME280;48772;55.586;37.730;2022-10-17T13:56:21;100003.34;;;7.67;100.00
62712;BME280;48772;55.586;37.730;2022-10-17T13:58:57;99990.53;;;7.60;100.00
62712;BME280;48772;55.586;37.730;2022-10-17T14:01:27;100005.22;;;7.65;100.00
62712;BME280;48772;55.586;37.730;2022-10-17T14:03:59;99976.06;;;7.51;100.00
62712;BME280;48772;55.586;37.730;2022-10-17T14:06:43;99948.59;;;7.38;100.00
62712;BME280;48772;55.586;37.730;2022-10-17T14:09:24;99995.38;;;7.67;100.00
62712;BME280;48772;55.586;37.730;2022-10-17T14:12:08;99997.94;;;7.69;100.00
62712;BME280;48772;55.586;37.730;2022-10-17T14:14:40;99957.84;;;7.59;100.00
62712;BME280;48772;55.586;37.730;2022-10-17T14:17:21;99965.22;;;7.68;100.00
62712;BME280;48772;55.586;37.730;2022-10-17T14:19:52;99958.03;;;7.56;100.00
62712;BME280;48772;55.586;37.730;2022-10-17T14:24:49;99970.16;;;7.60;100.00
62712;BME280;48772;55.586;37.730;2022-10-17T14:29:52;99981.91;;;7.70;100.00
62712;BME280;48772;55.586;37.730;2022-10-17T14:32:19;99973.97;;;7.70;100.00
62712;BME280;48772;55.586;37.730;2022-10-17T14:34:51;99943.81;;;7.57;100.00
62712;BME280;48772;55.586;37.730;2022-10-17T14:37:42;99950.44;;;7.64;100.00
62712;BME280;48772;55.586;37.730;2022-10-17T14:40:20;99966.94;;;7.69;100.00
62712;BME280;48772;55.586;37.730;2022-10-17T14:42:48;99958.69;;;7.60;100.00
62712;BME280;48772;55.586;37.730;2022-10-17T14:45:31;99967.69;;;7.71;100.00
62712;BME280;48772;55.586;37.730;2022-10-17T14:48:10;99937.19;;;7.50;100.00
62712;BME280;48772;55.586;37.730;2022-10-17T14:50:38;99961.44;;;7.58;100.00
62712;BME280;48772;55.586;37.730;2022-10-17T14:55:38;99948.94;;;7.60;100.00
62712;BME280;48772;55.586;37.730;2022-10-17T14:58:18;99969.00;;;7.78;100.00
62712;BME280;48772;55.586;37.730;2022-10-17T15:00:48;99945.16;;;7.50;100.00
62712;BME280;48772;55.586;37.730;2022-10-17T15:03:14;99955.56;;;7.67;100.00
62712;BME280;48772;55.586;37.730;2022-10-17T15:05:40;99952.63;;;7.72;100.00